National Weather Service Raw Text Product

Displaying AFOS PIL: TAFDSM Received: 2017-09-14 05:20 UTC


272 
FTUS43 KDMX 140520
TAFDSM
TAF
KDSM 140520Z 1406/1506 VRB04KT P6SM FEW130
     FM141600 19014G22KT P6SM BKN130
     FM142000 19012G19KT P6SM SCT200
     FM142300 17010KT P6SM BKN200
     FM150300 17008KT P6SM BKN110 BKN200=